Time,TemperatureF,DewpointF,PressureIn,WindDirection,WindDirectionDegrees,WindSpeedMPH,WindSpeedGustMPH,Humidity,HourlyPrecipIn,Conditions,Clouds,dailyrainin,SoftwareType,DateUTC
2013-03-11 00:03:00,54.0,41.2,29.70,SSW,196,6.0,8.0,62,0.12,CLR,CLR,0.37,WeatherDisplay:10.37,2013-03-11 04:03:00,
2013-03-11 00:18:00,54.1,40.1,29.67,South,184,6.0,8.0,59,0.12,CLR,CLR,0.41,WeatherDisplay:10.37,2013-03-11 04:18:00,
2013-03-11 00:33:00,54.0,39.9,29.67,South,190,6.0,9.0,59,0.12,RA,RA,0.45,WeatherDisplay:10.37,2013-03-11 04:33:00,
2013-03-11 00:48:00,53.8,39.8,29.67,South,191,6.0,8.0,59,0.12,RA,RA,0.49,WeatherDisplay:10.37,2013-03-11 04:48:00,
2013-03-11 01:03:00,53.6,41.7,29.70,SSW,202,3.0,6.0,64,0.16,RA,RA,0.53,WeatherDisplay:10.37,2013-03-11 05:03:00,
2013-03-11 01:18:00,53.6,44.8,29.67,SSW,213,3.0,6.0,72,0.17,CLR,CLR,0.58,WeatherDisplay:10.37,2013-03-11 05:18:00,
2013-03-11 01:33:00,54.1,41.8,29.70,SW,223,9.0,11.0,63,0.17,CLR,CLR,0.62,WeatherDisplay:10.37,2013-03-11 05:33:00,
2013-03-11 01:48:00,53.2,33.5,29.70,SW,229,9.0,12.0,47,0.17,CLR,CLR,0.66,WeatherDisplay:10.37,2013-03-11 05:48:00,
2013-03-11 02:03:00,52.5,32.3,29.70,SW,214,7.0,11.0,46,0.17,RA,RA,0.70,WeatherDisplay:10.37,2013-03-11 06:03:00,
2013-03-11 02:18:00,52.2,33.0,29.70,SSW,213,6.0,10.0,48,0.16,RA,RA,0.74,WeatherDisplay:10.37,2013-03-11 06:18:00,
2013-03-11 02:33:00,52.3,34.2,29.67,SSW,197,6.0,12.0,50,0.17,RA,RA,0.80,WeatherDisplay:10.37,2013-03-11 06:33:00,
2013-03-11 02:48:00,52.3,34.7,29.67,SSW,193,8.0,19.0,51,0.13,CLR,CLR,0.80,WeatherDisplay:10.37,2013-03-11 06:48:00,
2013-03-11 02:49:00,52.2,52.2,29.67,South,189,8.0,12.0,100,0.12,-RA,-RA,0.83,WeatherDisplay:10.37,2013-03-11 06:49:00,
2013-03-11 02:50:00,52.2,52.2,29.67,South,189,8.0,0.0,100,0.12,-RA,-RA,0.83,WeatherDisplay:10.37,2013-03-11 06:50:00,
2013-03-11 02:51:00,52.2,52.2,29.67,South,189,8.0,0.0,100,0.12,-RA,-RA,0.83,WeatherDisplay:10.37,2013-03-11 06:51:00,
2013-03-11 02:52:00,52.2,52.2,29.67,South,189,8.0,0.0,100,0.12,-RA,-RA,0.83,WeatherDisplay:10.37,2013-03-11 06:52:00,
2013-03-11 02:53:00,52.2,52.2,29.67,South,189,8.0,0.0,100,0.12,-RA,-RA,0.83,WeatherDisplay:10.37,2013-03-11 06:53:00,
2013-03-11 02:54:00,52.2,52.2,29.67,South,189,8.0,0.0,100,0.12,-RA,-RA,0.83,WeatherDisplay:10.37,2013-03-11 06:54:00,
2013-03-11 02:55:00,52.2,52.2,29.67,South,189,8.0,0.0,100,0.12,-RA,-RA,0.83,WeatherDisplay:10.37,2013-03-11 06:55:00,
2013-03-11 02:56:00,52.2,52.2,29.67,South,189,8.0,0.0,100,0.12,-RA,-RA,0.83,WeatherDisplay:10.37,2013-03-11 06:56:00,
2013-03-11 02:57:00,52.2,52.2,29.67,South,189,8.0,0.0,100,0.12,-RA,-RA,0.83,WeatherDisplay:10.37,2013-03-11 06:57:00,
2013-03-11 02:58:00,52.2,52.2,29.67,South,189,8.0,0.0,100,0.12,-RA,-RA,0.83,WeatherDisplay:10.37,2013-03-11 06:58:00,
2013-03-11 02:59:00,52.2,52.2,29.67,South,189,8.0,0.0,100,0.12,-RA,-RA,0.83,WeatherDisplay:10.37,2013-03-11 06:59:00,
2013-03-11 03:00:00,52.2,52.2,29.67,South,189,8.0,0.0,100,0.12,-RA,-RA,0.83,WeatherDisplay:10.37,2013-03-11 07:00:00,
2013-03-11 03:01:00,52.2,52.2,29.67,South,189,8.0,0.0,100,0.12,-RA,-RA,0.83,WeatherDisplay:10.37,2013-03-11 07:01:00,
2013-03-11 03:02:00,52.2,52.2,29.67,South,189,8.0,0.0,100,0.12,-RA,-RA,0.83,WeatherDisplay:10.37,2013-03-11 07:02:00,
2013-03-11 03:03:00,52.2,52.2,29.67,South,189,8.0,0.0,100,0.12,-RA,-RA,0.83,WeatherDisplay:10.37,2013-03-11 07:03:00,
2013-03-11 07:59:00,52.3,36.6,29.67,South,180,19.2,19.2,55,0.16,RA,,0.83,WeatherDisplay:10.37,2013-03-11 11:59:00,
2013-03-11 08:00:00,52.3,36.6,29.67,South,180,4.6,6.4,55,0.16,RA,,0.83,WeatherDisplay:10.37,2013-03-11 12:00:00,
2013-03-11 08:05:00,52.2,48.1,29.70,SSW,202,13.8,13.8,86,0.12,-RA,,0.83,WeatherDisplay:10.37,2013-03-11 12:05:00,
2013-03-11 08:10:00,52.2,48.1,29.70,South,180,9.2,9.2,86,0.17,-RA,,0.87,WeatherDisplay:10.37,2013-03-11 12:10:00,
2013-03-11 08:15:00,52.0,47.9,29.70,SW,225,13.2,13.2,86,0.13,-RA,,0.87,WeatherDisplay:10.37,2013-03-11 12:15:00,
2013-03-11 08:20:00,52.0,47.9,29.67,SW,225,12.7,12.7,86,0.17,-RA,,0.92,WeatherDisplay:10.37,2013-03-11 12:20:00,
2013-03-11 08:25:00,52.0,48.2,29.67,South,180,10.4,10.4,87,0.17,-RA,,0.92,WeatherDisplay:10.37,2013-03-11 12:25:00,
2013-03-11 08:30:00,52.0,48.5,29.67,SSE,158,12.7,12.7,88,0.16,-RA,,0.96,WeatherDisplay:10.37,2013-03-11 12:30:00,
2013-03-11 08:35:00,52.0,48.8,29.67,SW,225,12.7,12.7,89,0.16,-RA,,0.96,WeatherDisplay:10.37,2013-03-11 12:35:00,
2013-03-11 08:40:00,52.0,49.1,29.67,South,180,10.4,10.4,90,0.16,-RA,,0.96,WeatherDisplay:10.37,2013-03-11 12:40:00,
2013-03-11 08:45:00,52.0,49.1,29.67,SE,135,8.1,8.1,90,0.16,-RA,,0.96,WeatherDisplay:10.37,2013-03-11 12:45:00,
2013-03-11 08:50:00,52.2,49.9,29.67,South,180,11.5,11.5,92,0.17,-RA,,0.99,WeatherDisplay:10.37,2013-03-11 12:50:00,
2013-03-11 08:55:00,52.3,50.1,29.67,South,180,8.5,8.5,92,0.17,-RA,,0.99,WeatherDisplay:10.37,2013-03-11 12:55:00,
2013-03-11 09:00:00,52.5,50.0,29.67,SSW,202,12.7,12.7,91,0.17,-RA,,0.99,WeatherDisplay:10.37,2013-03-11 13:00:00,
2013-03-11 09:05:00,52.7,49.8,29.67,South,180,8.5,8.5,90,0.17,-RA,,0.99,WeatherDisplay:10.37,2013-03-11 13:05:00,
2013-03-11 09:10:00,52.9,48.8,29.67,South,180,10.7,10.7,86,0.12,-RA,,0.99,WeatherDisplay:10.37,2013-03-11 13:10:00,
2013-03-11 09:16:00,52.9,48.5,29.67,South,180,11.5,11.5,85,0.12,-DZ,,0.99,WeatherDisplay:10.37,2013-03-11 13:16:00,
2013-03-11 09:21:00,52.9,48.2,29.67,SSW,202,8.1,8.1,84,0.08,-DZ,,0.99,WeatherDisplay:10.37,2013-03-11 13:21:00,
2013-03-11 09:26:00,52.9,47.9,29.67,South,180,10.4,10.4,83,0.08,-DZ,,0.99,WeatherDisplay:10.37,2013-03-11 13:26:00,
2013-03-11 09:31:00,52.7,47.7,29.67,South,180,10.5,10.5,83,0.04,-DZ,,0.99,WeatherDisplay:10.37,2013-03-11 13:31:00,
2013-03-11 09:36:00,52.7,47.7,29.67,South,180,10.9,10.9,83,0.04,-DZ,,0.99,WeatherDisplay:10.37,2013-03-11 13:36:00,
2013-03-11 09:41:00,52.7,48.0,29.67,South,180,9.2,9.2,84,0.04,-DZ,,0.99,WeatherDisplay:10.37,2013-03-11 13:41:00,
2013-03-11 09:46:00,52.7,48.3,29.67,SW,225,11.5,11.5,85,0.04,-DZ,,0.99,WeatherDisplay:10.37,2013-03-11 13:46:00,
2013-03-11 09:50:00,52.5,48.5,29.67,SW,225,10.4,10.4,86,0.00,-DZ,,0.99,WeatherDisplay:10.37,2013-03-11 13:50:00,
2013-03-11 09:55:00,52.5,48.5,29.67,SSW,202,8.1,8.1,86,0.00,-DZ,,0.99,WeatherDisplay:10.37,2013-03-11 13:55:00,
2013-03-11 10:00:00,52.5,48.8,29.67,SW,225,8.1,8.1,87,0.00,-DZ,,0.99,WeatherDisplay:10.37,2013-03-11 14:00:00,
2013-03-11 10:05:00,52.5,49.1,29.64,South,180,5.8,5.8,88,0.00,OVC,,0.99,WeatherDisplay:10.37,2013-03-11 14:05:00,
2013-03-11 10:10:00,52.5,49.4,29.64,South,180,11.4,11.4,89,0.00,OVC,,0.99,WeatherDisplay:10.37,2013-03-11 14:10:00,
2013-03-11 10:15:00,52.5,49.7,29.64,South,180,9.2,9.2,90,0.00,OVC,,0.99,WeatherDisplay:10.37,2013-03-11 14:15:00,
2013-03-11 10:20:00,52.5,49.7,29.67,SSW,202,8.7,8.7,90,0.00,OVC,,0.99,WeatherDisplay:10.37,2013-03-11 14:20:00,
2013-03-11 10:25:00,52.3,49.8,29.67,SSW,202,9.2,9.2,91,0.00,OVC,,0.99,WeatherDisplay:10.37,2013-03-11 14:25:00,
2013-03-11 10:30:00,52.3,49.8,29.67,SW,225,6.9,6.9,91,0.00,-RA,,0.99,WeatherDisplay:10.37,2013-03-11 14:30:00,
2013-03-11 10:35:00,52.2,49.9,29.67,SW,225,10.9,10.9,92,0.04,-RA,,1.03,WeatherDisplay:10.37,2013-03-11 14:35:00,
2013-03-11 10:40:00,51.6,49.7,29.67,SW,225,13.8,13.8,93,0.04,-RA,,1.03,WeatherDisplay:10.37,2013-03-11 14:40:00,
2013-03-11 10:45:00,51.4,46.4,29.67,SW,225,8.5,8.5,83,0.04,-RA,,1.03,WeatherDisplay:10.37,2013-03-11 14:45:00,
2013-03-11 10:50:00,51.1,46.4,29.64,SW,225,12.3,12.3,84,0.04,-RA,,1.03,WeatherDisplay:10.37,2013-03-11 14:50:00,
2013-03-11 10:55:00,50.7,46.4,29.64,SW,225,11.5,11.5,85,0.04,-RA,,1.03,WeatherDisplay:10.37,2013-03-11 14:55:00,
2013-03-11 11:01:00,50.4,47.8,29.64,SW,225,9.7,9.7,91,0.04,-RA,,1.03,WeatherDisplay:10.37,2013-03-11 15:01:00,
2013-03-11 11:05:00,50.4,48.4,29.64,SSW,202,7.8,7.8,93,0.08,-RA,,1.08,WeatherDisplay:10.37,2013-03-11 15:05:00,
2013-03-11 11:10:00,50.2,49.1,29.64,SW,225,9.2,9.2,96,0.08,-RA,,1.08,WeatherDisplay:10.37,2013-03-11 15:10:00,
2013-03-11 11:15:00,50.2,49.1,29.64,SW,225,11.5,11.5,96,0.08,-RA,,1.08,WeatherDisplay:10.37,2013-03-11 15:15:00,
2013-03-11 11:20:00,50.0,48.9,29.67,SW,225,13.8,13.8,96,0.08,-RA,,1.08,WeatherDisplay:10.37,2013-03-11 15:20:00,
2013-03-11 11:25:00,50.0,49.2,29.67,SW,225,10.2,10.2,97,0.08,-RA,,1.08,WeatherDisplay:10.37,2013-03-11 15:25:00,
2013-03-11 11:30:00,50.0,49.5,29.67,SW,225,11.5,11.5,98,0.08, +RA,,1.08,WeatherDisplay:10.37,2013-03-11 15:30:00,
2013-03-11 11:36:00,49.8,49.3,29.64,SW,225,11.5,11.5,98,0.04, +RA,,1.08,WeatherDisplay:10.37,2013-03-11 15:36:00,
2013-03-11 11:41:00,49.8,49.3,29.64,SW,225,12.1,12.1,98,0.04, +RA,,1.08,WeatherDisplay:10.37,2013-03-11 15:41:00,
2013-03-11 11:46:00,50.0,49.5,29.64,WSW,248,9.2,9.2,98,0.09, +RA,,1.12,WeatherDisplay:10.37,2013-03-11 15:46:00,
2013-03-11 11:51:00,50.0,49.7,29.64,SSW,202,10.4,10.4,99,0.09, +RA,,1.12,WeatherDisplay:10.37,2013-03-11 15:51:00,
2013-03-11 11:56:00,49.6,47.7,29.64,WSW,248,17.3,17.3,93,0.09, +RA,,1.12,WeatherDisplay:10.37,2013-03-11 15:56:00,
2013-03-11 12:01:00,49.1,43.8,29.64,West,270,17.3,17.3,82,0.09, +RA,,1.12,WeatherDisplay:10.37,2013-03-11 16:01:00,
2013-03-11 12:06:00,48.7,44.1,29.67,SW,225,15.2,15.2,84,0.05, +RA,,1.12,WeatherDisplay:10.37,2013-03-11 16:06:00,
2013-03-11 12:11:00,48.6,42.3,29.67,West,270,17.3,17.3,79,0.05, +RA,,1.12,WeatherDisplay:10.37,2013-03-11 16:11:00,
2013-03-11 12:16:00,48.0,41.5,29.67,SW,225,21.9,21.9,78,0.05,-RA,,1.12,WeatherDisplay:10.37,2013-03-11 16:16:00,
2013-03-11 12:21:00,47.8,42.0,29.67,West,270,15.0,15.0,80,0.05,-RA,,1.12,WeatherDisplay:10.37,2013-03-11 16:21:00,
2013-03-11 12:26:00,46.9,39.4,29.67,WSW,248,16.1,16.1,75,0.05,-RA,,1.12,WeatherDisplay:10.37,2013-03-11 16:26:00,
2013-03-11 12:31:00,46.6,39.4,29.67,West,270,15.0,15.0,76,0.05,-RA,,1.12,WeatherDisplay:10.37,2013-03-11 16:31:00,
2013-03-11 12:36:00,45.9,41.0,29.67,WSW,248,17.3,17.3,83,0.05,-RA,,1.12,WeatherDisplay:10.37,2013-03-11 16:36:00,
2013-03-11 12:41:00,45.5,41.3,29.67,SW,225,16.1,16.1,85,0.05,-RA,,1.12,WeatherDisplay:10.37,2013-03-11 16:41:00,
2013-03-11 12:46:00,45.3,41.7,29.67,West,270,11.5,11.5,87,0.00,-RA,,1.12,WeatherDisplay:10.37,2013-03-11 16:46:00,
2013-03-11 12:51:00,45.5,42.2,29.67,SW,225,12.7,12.7,88,0.00,-RA,,1.12,WeatherDisplay:10.37,2013-03-11 16:51:00,
2013-03-11 12:56:00,45.5,43.3,29.67,West,270,12.7,12.7,92,0.00,-RA,,1.12,WeatherDisplay:10.37,2013-03-11 16:56:00,
2013-03-11 13:01:00,45.7,42.6,29.67,West,270,12.7,12.7,89,0.00,-RA,,1.12,WeatherDisplay:10.37,2013-03-11 17:01:00,
2013-03-11 13:06:00,45.5,41.3,29.67,WSW,248,11.5,11.5,85,0.00,OVC,,1.12,WeatherDisplay:10.37,2013-03-11 17:06:00,
2013-03-11 13:11:00,45.3,41.4,29.67,WSW,248,12.7,12.7,86,0.00,OVC,,1.12,WeatherDisplay:10.37,2013-03-11 17:11:00,
2013-03-11 13:16:00,45.3,42.0,29.67,SW,225,12.7,12.7,88,0.00,OVC,,1.12,WeatherDisplay:10.37,2013-03-11 17:16:00,
2013-03-11 13:21:00,45.3,42.6,29.67,WSW,248,10.4,10.4,90,0.00,OVC,,1.12,WeatherDisplay:10.37,2013-03-11 17:21:00,
2013-03-11 13:26:00,45.1,40.9,29.67,WSW,248,10.4,10.4,85,0.00,OVC,,1.12,WeatherDisplay:10.37,2013-03-11 17:26:00,
2013-03-11 13:31:00,45.0,40.4,29.67,SW,225,9.2,9.2,84,0.00,OVC,,1.12,WeatherDisplay:10.37,2013-03-11 17:31:00,
2013-03-11 13:36:00,44.8,39.6,29.64,SW,225,12.7,12.7,82,0.00,OVC,,1.12,WeatherDisplay:10.37,2013-03-11 17:36:00,
2013-03-11 13:41:00,44.8,38.7,29.64,WSW,248,16.1,16.1,79,0.00,OVC,,1.12,WeatherDisplay:10.37,2013-03-11 17:41:00,
2013-03-11 13:46:00,44.8,39.6,29.64,WSW,248,10.0,10.0,82,0.00,OVC,,1.12,WeatherDisplay:10.37,2013-03-11 17:46:00,
2013-03-11 13:51:00,44.8,39.9,29.64,SW,225,8.1,8.1,83,0.00,OVC,,1.12,WeatherDisplay:10.37,2013-03-11 17:51:00,
2013-03-11 13:56:00,44.4,39.9,29.64,West,270,11.5,11.5,84,0.04,RA,,1.17,WeatherDisplay:10.37,2013-03-11 17:56:00,
2013-03-11 14:01:00,44.2,39.4,29.64,WSW,248,12.7,12.7,83,0.04,RA,,1.17,WeatherDisplay:10.37,2013-03-11 18:01:00,
2013-03-11 14:06:00,44.2,39.7,29.67,West,270,13.8,13.8,84,0.04,OVC,,1.17,WeatherDisplay:10.37,2013-03-11 18:06:00,
2013-03-11 14:11:00,44.4,38.6,29.67,West,270,12.7,12.7,80,0.04,OVC,,1.17,WeatherDisplay:10.37,2013-03-11 18:11:00,
2013-03-11 14:16:00,44.2,38.5,29.67,West,270,15.4,15.4,80,0.04,OVC,,1.17,WeatherDisplay:10.37,2013-03-11 18:16:00,
2013-03-11 14:20:00,44.2,39.1,29.67,WSW,248,9.2,9.2,82,0.04,OVC,,1.17,WeatherDisplay:10.37,2013-03-11 18:20:00,
2013-03-11 14:26:00,44.2,39.1,29.67,WSW,248,12.7,12.7,82,0.04,OVC,,1.17,WeatherDisplay:10.37,2013-03-11 18:26:00,
2013-03-11 14:32:00,44.1,38.0,29.67,West,270,13.8,13.8,79,0.04,OVC,,1.17,WeatherDisplay:10.37,2013-03-11 18:32:00,
2013-03-11 14:37:00,43.7,36.6,29.67,West,270,12.7,12.7,76,0.04,OVC,,1.17,WeatherDisplay:10.37,2013-03-11 18:37:00,
2013-03-11 14:42:00,43.5,36.8,29.67,West,270,13.8,13.8,77,0.04,OVC,,1.17,WeatherDisplay:10.37,2013-03-11 18:42:00,
2013-03-11 14:47:00,43.3,35.6,29.67,SW,225,16.1,16.1,74,0.04,OVC,,1.17,WeatherDisplay:10.37,2013-03-11 18:47:00,
2013-03-11 14:52:00,43.3,34.9,29.67,WSW,248,17.3,17.3,72,0.04,OVC,,1.17,WeatherDisplay:10.37,2013-03-11 18:52:00,
2013-03-11 14:57:00,43.3,34.2,29.67,WSW,248,13.8,13.8,70,0.00,OVC,,1.17,WeatherDisplay:10.37,2013-03-11 18:57:00,
2013-03-11 15:02:00,43.3,34.9,29.67,WSW,248,13.8,13.8,72,0.00,OVC,,1.17,WeatherDisplay:10.37,2013-03-11 19:02:00,
2013-03-11 15:07:00,43.5,35.1,29.64,West,270,11.5,11.5,72,0.00,OVC,,1.17,WeatherDisplay:10.37,2013-03-11 19:07:00,
2013-03-11 15:12:00,43.5,36.1,29.64,WSW,248,8.1,8.1,75,0.00,OVC,,1.17,WeatherDisplay:10.37,2013-03-11 19:12:00,
2013-03-11 15:17:00,43.3,32.7,29.64,West,270,16.3,16.3,66,0.00,OVC,,1.17,WeatherDisplay:10.37,2013-03-11 19:17:00,
2013-03-11 15:22:00,43.3,32.7,29.64,West,270,9.2,9.2,66,0.00,OVC,,1.17,WeatherDisplay:10.37,2013-03-11 19:22:00,
2013-03-11 15:27:00,43.5,32.9,29.64,West,270,9.2,9.2,66,0.00,OVC,,1.17,WeatherDisplay:10.37,2013-03-11 19:27:00,
2013-03-11 15:32:00,43.5,32.1,29.64,WSW,248,10.4,10.4,64,0.00,OVC,,1.17,WeatherDisplay:10.37,2013-03-11 19:32:00,
2013-03-11 15:37:00,43.7,31.5,29.64,WSW,248,13.8,13.8,62,0.00,OVC,,1.17,WeatherDisplay:10.37,2013-03-11 19:37:00,
2013-03-11 15:42:00,43.9,30.9,29.64,SW,225,13.8,13.8,60,0.00,OVC,,1.17,WeatherDisplay:10.37,2013-03-11 19:42:00,
2013-03-11 15:47:00,44.4,32.2,29.64,SSW,202,10.4,10.4,62,0.00,OVC,,1.17,WeatherDisplay:10.37,2013-03-11 19:47:00,
2013-03-11 15:52:00,45.0,31.9,29.67,WSW,248,13.5,13.5,60,0.00,OVC,,1.17,WeatherDisplay:10.37,2013-03-11 19:52:00,
2013-03-11 15:57:00,45.0,29.8,29.67,SW,225,17.3,17.3,55,0.00,OVC,,1.17,WeatherDisplay:10.37,2013-03-11 19:57:00,
2013-03-11 16:02:00,45.3,30.1,29.67,WSW,248,17.3,17.3,55,0.00,OVC,,1.17,WeatherDisplay:10.37,2013-03-11 20:02:00,
2013-03-11 16:07:00,45.3,30.1,29.67,SW,225,15.0,15.0,55,0.00,OVC,,1.17,WeatherDisplay:10.37,2013-03-11 20:07:00,
2013-03-11 16:12:00,44.8,29.6,29.67,WSW,248,15.0,15.0,55,0.00,OVC,,1.17,WeatherDisplay:10.37,2013-03-11 20:12:00,
2013-03-11 16:17:00,44.6,27.6,29.67,WSW,248,17.3,17.3,51,0.00,BKN,,1.17,WeatherDisplay:10.37,2013-03-11 20:17:00,
2013-03-11 16:22:00,45.0,29.8,29.67,WSW,248,15.4,15.4,55,0.00,BKN,,1.17,WeatherDisplay:10.37,2013-03-11 20:22:00,
2013-03-11 16:27:00,45.7,28.6,29.67,West,270,19.7,19.7,51,0.00,BKN,,1.17,WeatherDisplay:10.37,2013-03-11 20:27:00,
2013-03-11 16:32:00,45.1,26.6,29.67,WSW,248,19.6,19.6,48,0.00,BKN,,1.17,WeatherDisplay:10.37,2013-03-11 20:32:00,
2013-03-11 16:37:00,45.1,28.1,29.67,SW,225,17.3,17.3,51,0.00,BKN,,1.17,WeatherDisplay:10.37,2013-03-11 20:37:00,
2013-03-11 16:43:00,44.8,27.7,29.67,SW,225,13.7,13.7,51,0.00,BKN,,1.17,WeatherDisplay:10.37,2013-03-11 20:43:00,
2013-03-11 16:48:00,43.7,27.2,29.70,West,270,15.0,15.0,52,0.00,BKN,,1.17,WeatherDisplay:10.37,2013-03-11 20:48:00,
2013-03-11 16:53:00,43.3,26.9,29.70,WSW,248,18.4,18.4,52,0.00,BKN,,1.17,WeatherDisplay:10.37,2013-03-11 20:53:00,
2013-03-11 16:58:00,42.8,26.4,29.70,West,270,17.3,17.3,52,0.00,BKN,,1.17,WeatherDisplay:10.37,2013-03-11 20:58:00,
2013-03-11 17:03:00,42.4,26.0,29.70,West,262,12.0,0.0,52,0.00,-RA,-RA,1.17,WeatherDisplay:10.37,2013-03-11 21:03:00,
2013-03-11 17:08:00,42.1,25.7,29.70,WSW,248,13.8,13.8,52,0.00,-RA,,1.17,WeatherDisplay:10.37,2013-03-11 21:08:00,
2013-03-11 17:13:00,42.1,25.7,29.70,WSW,248,17.3,17.3,52,0.00,-RA,,1.17,WeatherDisplay:10.37,2013-03-11 21:13:00,
2013-03-11 17:18:00,41.9,25.5,29.73,West,270,13.8,13.8,52,0.00,-RA,,1.17,WeatherDisplay:10.37,2013-03-11 21:18:00,
2013-03-11 17:23:00,42.1,25.7,29.73,WSW,248,14.5,14.5,52,0.00,-RA,,1.17,WeatherDisplay:10.37,2013-03-11 21:23:00,
2013-03-11 17:28:00,42.3,25.9,29.73,WSW,248,17.3,17.3,52,0.00,-RA,,1.17,WeatherDisplay:10.37,2013-03-11 21:28:00,
2013-03-11 17:33:00,41.4,25.0,29.73,WSW,248,19.6,19.6,52,0.00,BKN,,1.17,WeatherDisplay:10.37,2013-03-11 21:33:00,
2013-03-11 17:38:00,41.2,24.9,29.73,WSW,248,12.8,13.2,52,0.00,BKN,,1.17,WeatherDisplay:10.37,2013-03-11 21:38:00,
2013-03-11 17:44:00,41.2,24.9,29.73,West,270,15.0,15.0,52,0.00,BKN,,1.17,WeatherDisplay:10.37,2013-03-11 21:44:00,
2013-03-11 17:49:00,41.5,25.2,29.73,SW,225,15.0,15.0,52,0.00,BKN,,1.17,WeatherDisplay:10.37,2013-03-11 21:49:00,
2013-03-11 17:54:00,42.6,26.2,29.73,WSW,248,13.8,13.8,52,0.00,BKN,,1.17,WeatherDisplay:10.37,2013-03-11 21:54:00,
2013-03-11 17:59:00,42.1,25.7,29.73,SW,225,12.7,12.7,52,0.00,BKN,,1.17,WeatherDisplay:10.37,2013-03-11 21:59:00,
2013-03-11 18:04:00,41.9,25.5,29.73,SW,225,14.0,14.0,52,0.00,BKN,,1.17,WeatherDisplay:10.37,2013-03-11 22:04:00,
2013-03-11 18:09:00,41.5,25.2,29.73,West,270,11.5,11.5,52,0.00,BKN,,1.17,WeatherDisplay:10.37,2013-03-11 22:09:00,
2013-03-11 18:14:00,41.5,25.2,29.73,WSW,248,11.5,11.5,52,0.00,BKN,,1.17,WeatherDisplay:10.37,2013-03-11 22:14:00,
2013-03-11 18:18:00,37.4,10.2,29.85,WSW,257,5.0,6.0,32,0.00,CLR,CLR,0.00,WeatherDisplay:10.37,2013-03-11 22:18:00,
2013-03-11 18:19:00,41.4,25.0,29.73,WSW,248,9.2,9.2,52,0.00,BKN,,1.17,WeatherDisplay:10.37,2013-03-11 22:19:00,
2013-03-11 18:24:00,41.2,23.4,29.73,West,270,12.7,12.7,49,0.00,BKN,,1.17,WeatherDisplay:10.37,2013-03-11 22:24:00,
2013-03-11 18:29:00,41.2,24.9,29.73,SW,225,10.4,10.4,52,0.00,BKN,,1.17,WeatherDisplay:10.37,2013-03-11 22:29:00,
2013-03-11 18:33:00,37.4,11.5,29.85,WSW,250,6.0,8.0,34,0.00,CLR,CLR,0.00,WeatherDisplay:10.37,2013-03-11 22:33:00,
2013-03-11 18:34:00,41.2,24.9,29.70,WSW,248,10.4,10.4,52,0.00,BKN,,1.17,WeatherDisplay:10.37,2013-03-11 22:34:00,
2013-03-11 18:39:00,41.4,25.0,29.70,West,270,13.8,13.8,52,0.00,BKN,,1.17,WeatherDisplay:10.37,2013-03-11 22:39:00,
2013-03-11 18:44:00,41.4,23.6,29.70,West,270,10.4,10.4,49,0.00,BKN,,1.17,WeatherDisplay:10.37,2013-03-11 22:44:00,
2013-03-11 18:48:00,37.2,10.7,29.85,WSW,257,6.0,8.0,33,0.00,CLR,CLR,0.00,WeatherDisplay:10.37,2013-03-11 22:48:00,
2013-03-11 18:49:00,41.4,25.0,29.73,WSW,248,7.4,7.4,52,0.00,BKN,,1.17,WeatherDisplay:10.37,2013-03-11 22:49:00,
2013-03-11 18:54:00,41.4,25.0,29.73,West,270,8.1,8.1,52,0.00,BKN,,1.17,WeatherDisplay:10.37,2013-03-11 22:54:00,
2013-03-11 18:59:00,41.4,23.6,29.73,WSW,248,12.7,12.7,49,0.00,BKN,,1.17,WeatherDisplay:10.37,2013-03-11 22:59:00,
2013-03-11 19:03:00,37.2,8.6,29.85,West,268,7.0,8.0,30,0.00,CLR,CLR,0.00,WeatherDisplay:10.37,2013-03-11 23:03:00,
2013-03-11 19:04:00,41.2,23.4,29.76,WSW,248,15.0,15.0,49,0.00,-RA,,1.17,WeatherDisplay:10.37,2013-03-11 23:04:00,
2013-03-11 19:09:00,41.0,23.3,29.76,West,270,15.0,15.0,49,0.00,-RA,,1.17,WeatherDisplay:10.37,2013-03-11 23:09:00,
2013-03-11 19:14:00,40.8,23.1,29.76,SW,225,13.0,13.0,49,0.00,-RA,,1.17,WeatherDisplay:10.37,2013-03-11 23:14:00,
2013-03-11 19:18:00,36.9,5.9,29.85,West,274,6.0,9.0,27,0.00,CLR,CLR,0.00,WeatherDisplay:10.37,2013-03-11 23:18:00,
2013-03-11 19:19:00,40.8,23.1,29.76,West,270,15.0,15.0,49,0.00,OVC,,1.17,WeatherDisplay:10.37,2013-03-11 23:19:00,
2013-03-11 19:24:00,40.6,22.9,29.76,WSW,248,12.7,12.7,49,0.00,OVC,,1.17,WeatherDisplay:10.37,2013-03-11 23:24:00,
2013-03-11 19:29:00,40.6,22.9,29.76,West,270,13.8,13.8,49,0.00,OVC,,1.17,WeatherDisplay:10.37,2013-03-11 23:29:00,
2013-03-11 19:33:00,36.7,3.2,29.85,West,264,6.0,11.0,24,0.00,CLR,CLR,0.00,WeatherDisplay:10.37,2013-03-11 23:33:00,
2013-03-11 19:34:00,40.5,22.8,29.79,West,270,8.1,8.1,49,0.00,OVC,,1.17,WeatherDisplay:10.37,2013-03-11 23:34:00,
2013-03-11 19:39:00,40.5,22.8,29.79,WSW,248,9.2,9.2,49,0.00,OVC,,1.17,WeatherDisplay:10.37,2013-03-11 23:39:00,
2013-03-11 19:44:00,40.5,22.8,29.79,West,270,13.8,13.8,49,0.00,OVC,,1.17,WeatherDisplay:10.37,2013-03-11 23:44:00,
2013-03-11 19:48:00,36.5,5.6,29.85,West,269,3.0,10.0,27,0.00,CLR,CLR,0.00,WeatherDisplay:10.37,2013-03-11 23:48:00,
2013-03-11 19:49:00,40.3,22.6,29.79,WSW,248,15.2,15.2,49,0.00,OVC,,1.17,WeatherDisplay:10.37,2013-03-11 23:49:00,
2013-03-11 19:54:00,40.1,22.4,29.79,West,270,10.9,10.9,49,0.00,OVC,,1.17,WeatherDisplay:10.37,2013-03-11 23:54:00,
2013-03-11 19:59:00,40.1,22.4,29.79,WNW,292,9.2,9.2,49,0.00,OVC,,1.17,WeatherDisplay:10.37,2013-03-11 23:59:00,
2013-03-11 20:00:00,59.9,14.9,30.11,North,8,5.0,6.0,17,0.00,,CL,0.00,WeatherDisplay:10.37,2013-03-12 00:00:00,
2013-03-11 20:03:00,36.3,5.5,29.85,West,266,5.0,11.0,27,0.00,CLR,CLR,0.00,WeatherDisplay:10.37,2013-03-12 00:03:00,
2013-03-11 20:04:00,39.9,23.7,29.79,West,270,12.3,12.3,52,0.00,OVC,,1.17,WeatherDisplay:10.37,2013-03-12 00:04:00,
2013-03-11 20:09:00,39.7,23.5,29.79,West,270,8.1,8.1,52,0.00,OVC,,1.17,WeatherDisplay:10.37,2013-03-12 00:09:00,
2013-03-11 20:10:00,60.1,15.1,30.11,North,8,6.0,7.0,17,0.00,CL,CL,0.00,WeatherDisplay:10.37,2013-03-12 00:10:00,
2013-03-11 20:14:00,39.7,23.5,29.79,West,270,6.0,6.0,52,0.00,OVC,,1.17,WeatherDisplay:10.37,2013-03-12 00:14:00,
2013-03-11 20:18:00,36.1,5.3,29.85,West,270,7.0,8.0,27,0.00,CLR,CLR,0.00,WeatherDisplay:10.37,2013-03-12 00:18:00,
2013-03-11 20:19:00,39.6,23.4,29.79,West,270,5.8,6.0,52,0.00,OVC,,1.17,WeatherDisplay:10.37,2013-03-12 00:19:00,
2013-03-11 20:25:00,39.6,23.4,29.79,SW,225,6.9,6.9,52,0.00,OVC,,1.17,WeatherDisplay:10.37,2013-03-12 00:25:00,
2013-03-11 20:30:00,39.4,23.2,29.79,West,270,8.1,8.1,52,0.00,OVC,,1.17,WeatherDisplay:10.37,2013-03-12 00:30:00,
2013-03-11 20:33:00,36.0,2.6,29.85,West,263,6.0,10.0,24,0.00,CLR,CLR,0.00,WeatherDisplay:10.37,2013-03-12 00:33:00,
2013-03-11 20:35:00,39.4,23.2,29.79,WNW,292,6.7,6.7,52,0.00,OVC,,1.17,WeatherDisplay:10.37,2013-03-12 00:35:00,
2013-03-11 20:40:00,39.2,23.0,29.79,West,270,9.2,9.2,52,0.00,OVC,,1.17,WeatherDisplay:10.37,2013-03-12 00:40:00,
2013-03-11 20:45:00,39.2,23.0,29.79,West,270,10.4,10.4,52,0.00,OVC,,1.17,WeatherDisplay:10.37,2013-03-12 00:45:00,
2013-03-11 20:48:00,35.8,2.4,29.85,West,273,6.0,8.0,24,0.00,CLR,CLR,0.00,WeatherDisplay:10.37,2013-03-12 00:48:00,
2013-03-11 20:50:00,39.2,23.0,29.79,West,270,10.4,10.4,52,0.00,OVC,,1.17,WeatherDisplay:10.37,2013-03-12 00:50:00,
2013-03-11 20:55:00,39.0,25.1,29.79,SW,225,6.9,6.9,57,0.00,OVC,,1.17,WeatherDisplay:10.37,2013-03-12 00:55:00,
2013-03-11 21:00:00,39.0,25.1,29.79,West,270,10.4,10.4,57,0.00,OVC,,1.17,WeatherDisplay:10.37,2013-03-12 01:00:00,
2013-03-11 21:03:00,35.8,2.4,29.85,West,270,7.0,7.0,24,0.00,CLR,CLR,0.00,WeatherDisplay:10.37,2013-03-12 01:03:00,
2013-03-11 21:05:00,38.8,24.9,29.82,WSW,248,8.1,8.1,57,0.00,OVC,,1.17,WeatherDisplay:10.37,2013-03-12 01:05:00,
2013-03-11 21:09:00,60.3,17.8,30.08,North,8,7.0,7.0,19,0.00,CL,CL,0.00,WeatherDisplay:10.37,2013-03-12 01:09:00,
2013-03-11 21:10:00,38.7,26.4,29.82,WSW,248,6.4,6.4,61,0.00,OVC,,1.17,WeatherDisplay:10.37,2013-03-12 01:10:00,
2013-03-11 21:15:00,38.7,26.4,29.82,West,270,6.9,6.9,61,0.00,OVC,,1.17,WeatherDisplay:10.37,2013-03-12 01:15:00,
2013-03-11 21:18:00,35.6,2.3,29.85,West,270,5.0,9.0,24,0.00,CLR,CLR,0.00,WeatherDisplay:10.37,2013-03-12 01:18:00,
2013-03-11 21:24:00,38.3,26.0,29.82,WSW,248,6.9,6.9,61,0.00,OVC,,1.17,WeatherDisplay:10.37,2013-03-12 01:24:00,
2013-03-11 21:29:00,38.1,25.8,29.82,West,270,12.7,12.7,61,0.00,OVC,,1.17,WeatherDisplay:10.37,2013-03-12 01:29:00,
2013-03-11 21:33:00,35.4,4.7,29.88,West,278,5.0,8.0,27,0.00,CLR,CLR,0.00,WeatherDisplay:10.37,2013-03-12 01:33:00,
2013-03-11 21:34:00,37.9,26.1,29.82,West,270,6.9,6.9,62,0.00,OVC,,1.17,WeatherDisplay:10.37,2013-03-12 01:34:00,
2013-03-11 21:39:00,37.9,26.1,29.82,NW,315,4.6,4.6,62,0.00,OVC,,1.17,WeatherDisplay:10.37,2013-03-12 01:39:00,
2013-03-11 21:44:00,37.9,26.8,29.82,West,270,7.8,7.8,64,0.00,OVC,,1.17,WeatherDisplay:10.37,2013-03-12 01:44:00,
2013-03-11 21:48:00,35.4,4.7,29.88,West,276,6.0,9.0,27,0.00,CLR,CLR,0.00,WeatherDisplay:10.37,2013-03-12 01:48:00,
2013-03-11 21:49:00,37.8,25.9,29.85,West,270,8.1,8.1,62,0.00,OVC,,1.17,WeatherDisplay:10.37,2013-03-12 01:49:00,
2013-03-11 21:54:00,37.8,25.9,29.85,West,270,10.4,10.4,62,0.00,OVC,,1.17,WeatherDisplay:10.37,2013-03-12 01:54:00,
2013-03-11 21:59:00,37.6,26.5,29.85,West,270,8.1,8.1,64,0.00,OVC,,1.17,WeatherDisplay:10.37,2013-03-12 01:59:00,
2013-03-11 22:03:00,35.4,7.0,29.88,West,273,3.0,6.0,30,0.00,CLR,CLR,0.00,WeatherDisplay:10.37,2013-03-12 02:03:00,
2013-03-11 22:04:00,37.6,26.5,29.85,West,270,5.8,5.8,64,0.00,OVC,,1.17,WeatherDisplay:10.37,2013-03-12 02:04:00,
2013-03-11 22:09:00,37.6,26.5,29.85,West,270,6.0,6.0,64,0.00,OVC,,1.17,WeatherDisplay:10.37,2013-03-12 02:09:00,
2013-03-11 22:10:00,59.0,23.2,30.05,North,8,6.0,9.0,25,0.00,CL,CL,0.00,WeatherDisplay:10.37,2013-03-12 02:10:00,
2013-03-11 22:14:00,37.6,26.9,29.85,NW,315,8.1,8.1,65,0.00,OVC,,1.17,WeatherDisplay:10.37,2013-03-12 02:14:00,
2013-03-11 22:18:00,35.2,6.8,29.88,West,276,3.0,6.0,30,0.00,CLR,CLR,0.00,WeatherDisplay:10.37,2013-03-12 02:18:00,
2013-03-11 22:19:00,37.6,26.5,29.85,WSW,248,6.9,6.9,64,0.00,OVC,,1.17,WeatherDisplay:10.37,2013-03-12 02:19:00,
2013-03-11 22:24:00,37.6,25.7,29.85,West,270,8.1,8.1,62,0.00,OVC,,1.17,WeatherDisplay:10.37,2013-03-12 02:24:00,
2013-03-11 22:29:00,37.6,26.5,29.85,West,270,5.8,5.8,64,0.00,OVC,,1.17,WeatherDisplay:10.37,2013-03-12 02:29:00,
2013-03-11 22:34:00,37.4,26.3,29.85,West,270,5.8,5.8,64,0.00,OVC,,1.17,WeatherDisplay:10.37,2013-03-12 02:34:00,
2013-03-11 22:39:00,37.4,26.3,29.85,West,270,7.4,7.4,64,0.00,OVC,,1.17,WeatherDisplay:10.37,2013-03-12 02:39:00,
2013-03-11 22:44:00,37.4,26.3,29.85,West,270,5.8,5.8,64,0.00,OVC,,1.17,WeatherDisplay:10.37,2013-03-12 02:44:00,
2013-03-11 22:49:00,37.4,26.3,29.85,West,270,9.2,9.2,64,0.00,OVC,,1.17,WeatherDisplay:10.37,2013-03-12 02:49:00,
2013-03-11 22:54:00,37.4,26.3,29.85,West,270,5.8,5.8,64,0.00,OVC,,1.17,WeatherDisplay:10.37,2013-03-12 02:54:00,
2013-03-11 22:59:00,37.4,26.3,29.85,West,270,9.2,9.2,64,0.00,OVC,,1.17,WeatherDisplay:10.37,2013-03-12 02:59:00,
2013-03-11 23:03:00,35.2,2.9,29.85,West,281,5.0,8.0,25,0.00,CLR,CLR,0.00,WeatherDisplay:10.37,2013-03-12 03:03:00,
2013-03-11 23:04:00,37.4,26.3,29.82,West,270,7.8,7.8,64,0.00,RA,,0.00,WeatherDisplay:10.37,2013-03-12 03:04:00,
2013-03-11 23:05:00,58.8,24.0,30.05,North,8,7.0,7.0,26,0.00,CL,CL,0.00,WeatherDisplay:10.37,2013-03-12 03:05:00,
2013-03-11 23:09:00,37.4,26.3,29.82,West,270,8.1,8.1,64,0.00,RA,,0.00,WeatherDisplay:10.37,2013-03-12 03:09:00,
2013-03-11 23:10:00,58.5,25.4,30.08,North,8,8.0,10.0,28,0.00,CL,CL,0.00,WeatherDisplay:10.37,2013-03-12 03:10:00,
2013-03-11 23:14:00,37.4,26.3,29.82,WSW,248,6.9,6.9,64,0.00,OVC,,0.00,WeatherDisplay:10.37,2013-03-12 03:14:00,
2013-03-11 23:33:00,35.1,6.7,29.85,West,278,3.0,4.0,30,0.00,CLR,CLR,0.00,WeatherDisplay:10.37,2013-03-12 03:33:00,
2013-03-11 23:48:00,35.1,2.7,29.88,WNW,287,3.0,8.0,25,0.00,CLR,CLR,0.00,WeatherDisplay:10.37,2013-03-12 03:48:00,